sensor_id;sensor_type;location;lat;lon;timestamp;temperature;humidity
3380;DHT22;1703;51.964;7.642;2024-03-08T00:00:15;5.70;99.90
3380;DHT22;1703;51.964;7.642;2024-03-08T00:02:46;5.60;99.90
3380;DHT22;1703;51.964;7.642;2024-03-08T00:05:13;5.50;99.90
3380;DHT22;1703;51.964;7.642;2024-03-08T00:07:41;5.60;99.90
3380;DHT22;1703;51.964;7.642;2024-03-08T00:10:10;5.60;99.90
3380;DHT22;1703;51.964;7.642;2024-03-08T00:12:37;5.50;99.90
3380;DHT22;1703;51.964;7.642;2024-03-08T00:15:05;5.50;99.90
3380;DHT22;1703;51.964;7.642;2024-03-08T00:17:32;5.50;99.90
3380;DHT22;1703;51.964;7.642;2024-03-08T00:20:01;5.50;99.90
3380;DHT22;1703;51.964;7.642;2024-03-08T00:22:29;5.50;99.90
3380;DHT22;1703;51.964;7.642;2024-03-08T00:24:56;5.50;99.90
3380;DHT22;1703;51.964;7.642;2024-03-08T00:27:23;5.50;99.90
3380;DHT22;1703;51.964;7.642;2024-03-08T00:29:50;5.40;99.90
3380;DHT22;1703;51.964;7.642;2024-03-08T00:32:17;5.40;99.90
3380;DHT22;1703;51.964;7.642;2024-03-08T00:34:43;5.40;99.90
3380;DHT22;1703;51.964;7.642;2024-03-08T00:37:11;5.40;99.90
3380;DHT22;1703;51.964;7.642;2024-03-08T00:39:38;5.40;99.90
3380;DHT22;1703;51.964;7.642;2024-03-08T00:42:05;5.30;99.90
3380;DHT22;1703;51.964;7.642;2024-03-08T00:44:32;5.40;99.90
3380;DHT22;1703;51.964;7.642;2024-03-08T00:46:59;5.40;99.90
3380;DHT22;1703;51.964;7.642;2024-03-08T00:49:25;5.30;99.90
3380;DHT22;1703;51.964;7.642;2024-03-08T00:51:52;5.20;99.90
3380;DHT22;1703;51.964;7.642;2024-03-08T00:54:20;5.30;99.90
3380;DHT22;1703;51.964;7.642;2024-03-08T00:56:47;5.30;99.90
3380;DHT22;1703;51.964;7.642;2024-03-08T00:59:14;5.30;99.90
3380;DHT22;1703;51.964;7.642;2024-03-08T01:01:41;5.20;99.90
3380;DHT22;1703;51.964;7.642;2024-03-08T01:07:57;5.20;99.90
3380;DHT22;1703;51.964;7.642;2024-03-08T01:10:25;5.10;99.90
3380;DHT22;1703;51.964;7.642;2024-03-08T01:12:52;5.10;99.90
3380;DHT22;1703;51.964;7.642;2024-03-08T01:15:20;5.10;99.90
3380;DHT22;1703;51.964;7.642;2024-03-08T01:17:46;5.10;99.90
3380;DHT22;1703;51.964;7.642;2024-03-08T01:20:13;5.10;99.90
3380;DHT22;1703;51.964;7.642;2024-03-08T01:22:40;5.10;99.90
3380;DHT22;1703;51.964;7.642;2024-03-08T01:25:08;5.10;99.90
3380;DHT22;1703;51.964;7.642;2024-03-08T01:27:36;5.10;99.90
3380;DHT22;1703;51.964;7.642;2024-03-08T01:30:04;5.10;99.90
3380;DHT22;1703;51.964;7.642;2024-03-08T01:32:31;5.10;99.90
3380;DHT22;1703;51.964;7.642;2024-03-08T01:34:57;5.10;99.90
3380;DHT22;1703;51.964;7.642;2024-03-08T01:37:24;5.00;99.90
3380;DHT22;1703;51.964;7.642;2024-03-08T01:39:51;5.10;99.90
3380;DHT22;1703;51.964;7.642;2024-03-08T01:42:18;5.00;99.90
3380;DHT22;1703;51.964;7.642;2024-03-08T01:44:46;5.00;99.90
3380;DHT22;1703;51.964;7.642;2024-03-08T01:47:13;4.90;99.90
3380;DHT22;1703;51.964;7.642;2024-03-08T01:49:40;5.00;99.90
3380;DHT22;1703;51.964;7.642;2024-03-08T01:52:07;5.00;99.90
3380;DHT22;1703;51.964;7.642;2024-03-08T01:54:35;4.90;99.90
3380;DHT22;1703;51.964;7.642;2024-03-08T01:57:02;4.80;99.90
3380;DHT22;1703;51.964;7.642;2024-03-08T01:59:29;4.90;99.90
3380;DHT22;1703;51.964;7.642;2024-03-08T02:02:01;4.90;99.90
3380;DHT22;1703;51.964;7.642;2024-03-08T02:04:28;4.90;99.90
3380;DHT22;1703;51.964;7.642;2024-03-08T02:06:56;4.80;99.90
3380;DHT22;1703;51.964;7.642;2024-03-08T02:09:24;4.80;99.90
3380;DHT22;1703;51.964;7.642;2024-03-08T02:11:51;4.90;99.90
3380;DHT22;1703;51.964;7.642;2024-03-08T02:14:20;4.80;99.90
3380;DHT22;1703;51.964;7.642;2024-03-08T02:16:47;4.80;99.90
3380;DHT22;1703;51.964;7.642;2024-03-08T02:19:15;4.70;99.90
3380;DHT22;1703;51.964;7.642;2024-03-08T02:21:43;4.80;99.90
3380;DHT22;1703;51.964;7.642;2024-03-08T02:24:12;4.90;99.90
3380;DHT22;1703;51.964;7.642;2024-03-08T02:26:40;4.90;99.90
3380;DHT22;1703;51.964;7.642;2024-03-08T02:29:08;4.90;99.90
3380;DHT22;1703;51.964;7.642;2024-03-08T02:31:35;4.90;99.90
3380;DHT22;1703;51.964;7.642;2024-03-08T02:34:02;4.80;99.90
3380;DHT22;1703;51.964;7.642;2024-03-08T02:36:30;4.80;99.90
3380;DHT22;1703;51.964;7.642;2024-03-08T02:39:01;4.80;99.90
3380;DHT22;1703;51.964;7.642;2024-03-08T02:41:28;4.70;99.90
3380;DHT22;1703;51.964;7.642;2024-03-08T02:43:55;4.70;99.90
3380;DHT22;1703;51.964;7.642;2024-03-08T02:46:22;4.70;99.90
3380;DHT22;1703;51.964;7.642;2024-03-08T02:48:49;4.70;99.90
3380;DHT22;1703;51.964;7.642;2024-03-08T02:51:16;4.70;99.90
3380;DHT22;1703;51.964;7.642;2024-03-08T02:53:43;4.70;99.90
3380;DHT22;1703;51.964;7.642;2024-03-08T02:56:11;4.70;99.90
3380;DHT22;1703;51.964;7.642;2024-03-08T02:58:42;4.70;99.90
3380;DHT22;1703;51.964;7.642;2024-03-08T03:01:14;4.60;99.90
3380;DHT22;1703;51.964;7.642;2024-03-08T03:03:41;4.70;99.90
3380;DHT22;1703;51.964;7.642;2024-03-08T03:06:07;4.60;99.90
3380;DHT22;1703;51.964;7.642;2024-03-08T03:08:34;4.60;99.90
3380;DHT22;1703;51.964;7.642;2024-03-08T03:11:01;4.60;99.90
3380;DHT22;1703;51.964;7.642;2024-03-08T03:13:29;4.60;99.90
3380;DHT22;1703;51.964;7.642;2024-03-08T03:15:56;4.60;99.90
3380;DHT22;1703;51.964;7.642;2024-03-08T03:18:23;4.60;99.90
3380;DHT22;1703;51.964;7.642;2024-03-08T03:20:51;4.60;99.90
3380;DHT22;1703;51.964;7.642;2024-03-08T03:23:18;4.50;99.90
3380;DHT22;1703;51.964;7.642;2024-03-08T03:25:46;4.50;99.90
3380;DHT22;1703;51.964;7.642;2024-03-08T03:28:12;4.50;99.90
3380;DHT22;1703;51.964;7.642;2024-03-08T03:30:44;4.50;99.90
3380;DHT22;1703;51.964;7.642;2024-03-08T03:33:12;4.50;99.90
3380;DHT22;1703;51.964;7.642;2024-03-08T03:35:40;4.50;99.90
3380;DHT22;1703;51.964;7.642;2024-03-08T03:38:08;4.40;99.90
3380;DHT22;1703;51.964;7.642;2024-03-08T03:40:35;4.40;99.90
3380;DHT22;1703;51.964;7.642;2024-03-08T03:43:03;4.40;99.90
3380;DHT22;1703;51.964;7.642;2024-03-08T03:45:30;4.40;99.90
3380;DHT22;1703;51.964;7.642;2024-03-08T03:48:02;4.40;99.90
3380;DHT22;1703;51.964;7.642;2024-03-08T03:50:29;4.50;99.90
3380;DHT22;1703;51.964;7.642;2024-03-08T03:52:56;4.40;99.90
3380;DHT22;1703;51.964;7.642;2024-03-08T03:55:22;4.40;99.90
3380;DHT22;1703;51.964;7.642;2024-03-08T03:57:49;4.40;99.90
3380;DHT22;1703;51.964;7.642;2024-03-08T04:00:16;4.40;99.90
3380;DHT22;1703;51.964;7.642;2024-03-08T04:02:44;4.40;99.90
3380;DHT22;1703;51.964;7.642;2024-03-08T04:05:13;4.30;99.90
3380;DHT22;1703;51.964;7.642;2024-03-08T04:07:40;4.30;99.90
3380;DHT22;1703;51.964;7.642;2024-03-08T04:10:09;4.30;99.90
3380;DHT22;1703;51.964;7.642;2024-03-08T04:12:37;4.30;99.90
3380;DHT22;1703;51.964;7.642;2024-03-08T04:15:04;4.40;99.90
3380;DHT22;1703;51.964;7.642;2024-03-08T04:17:32;4.30;99.90
3380;DHT22;1703;51.964;7.642;2024-03-08T04:20:01;4.30;99.90
3380;DHT22;1703;51.964;7.642;2024-03-08T04:22:34;4.30;99.90
3380;DHT22;1703;51.964;7.642;2024-03-08T04:25:01;4.20;99.90
3380;DHT22;1703;51.964;7.642;2024-03-08T04:27:28;4.30;99.90
3380;DHT22;1703;51.964;7.642;2024-03-08T04:29:55;4.20;99.90
3380;DHT22;1703;51.964;7.642;2024-03-08T04:32:22;4.20;99.90
3380;DHT22;1703;51.964;7.642;2024-03-08T04:34:49;4.20;99.90
3380;DHT22;1703;51.964;7.642;2024-03-08T04:37:16;4.20;99.90
3380;DHT22;1703;51.964;7.642;2024-03-08T04:39:48;4.20;99.90
3380;DHT22;1703;51.964;7.642;2024-03-08T04:42:15;4.20;99.90
3380;DHT22;1703;51.964;7.642;2024-03-08T04:44:43;4.30;99.90
3380;DHT22;1703;51.964;7.642;2024-03-08T04:47:10;4.30;99.90
3380;DHT22;1703;51.964;7.642;2024-03-08T04:49:37;4.30;99.90
3380;DHT22;1703;51.964;7.642;2024-03-08T04:52:04;4.20;99.90
3380;DHT22;1703;51.964;7.642;2024-03-08T04:54:32;4.20;99.90
3380;DHT22;1703;51.964;7.642;2024-03-08T04:57:01;4.10;99.90
3380;DHT22;1703;51.964;7.642;2024-03-08T04:59:28;4.10;99.90
3380;DHT22;1703;51.964;7.642;2024-03-08T05:01:55;4.10;99.90
3380;DHT22;1703;51.964;7.642;2024-03-08T05:04:21;4.10;99.90
3380;DHT22;1703;51.964;7.642;2024-03-08T05:06:48;4.10;99.90
3380;DHT22;1703;51.964;7.642;2024-03-08T05:09:15;4.20;99.90
3380;DHT22;1703;51.964;7.642;2024-03-08T05:11:43;4.20;99.90
3380;DHT22;1703;51.964;7.642;2024-03-08T05:14:12;4.20;99.90
3380;DHT22;1703;51.964;7.642;2024-03-08T05:16:42;4.20;99.90
3380;DHT22;1703;51.964;7.642;2024-03-08T05:19:09;4.20;99.90
3380;DHT22;1703;51.964;7.642;2024-03-08T05:21:35;4.20;99.90
3380;DHT22;1703;51.964;7.642;2024-03-08T05:24:03;4.20;99.90
3380;DHT22;1703;51.964;7.642;2024-03-08T05:26:30;4.20;99.90
3380;DHT22;1703;51.964;7.642;2024-03-08T05:28:59;4.10;99.90
3380;DHT22;1703;51.964;7.642;2024-03-08T05:31:27;4.10;99.90
3380;DHT22;1703;51.964;7.642;2024-03-08T05:33:54;4.10;99.90
3380;DHT22;1703;51.964;7.642;2024-03-08T05:36:21;4.00;99.90
3380;DHT22;1703;51.964;7.642;2024-03-08T05:38:48;3.90;99.90
3380;DHT22;1703;51.964;7.642;2024-03-08T05:41:16;3.90;99.90
3380;DHT22;1703;51.964;7.642;2024-03-08T05:43:42;3.90;99.90
3380;DHT22;1703;51.964;7.642;2024-03-08T05:46:10;4.00;99.90
3380;DHT22;1703;51.964;7.642;2024-03-08T05:48:38;3.90;99.90
3380;DHT22;1703;51.964;7.642;2024-03-08T05:51:05;3.80;99.90
3380;DHT22;1703;51.964;7.642;2024-03-08T05:53:32;3.90;99.90
3380;DHT22;1703;51.964;7.642;2024-03-08T05:55:59;3.90;99.90
3380;DHT22;1703;51.964;7.642;2024-03-08T05:58:27;3.90;99.90
3380;DHT22;1703;51.964;7.642;2024-03-08T06:00:55;3.90;99.90
3380;DHT22;1703;51.964;7.642;2024-03-08T06:03:22;3.90;99.90
3380;DHT22;1703;51.964;7.642;2024-03-08T06:05:50;3.90;99.90
3380;DHT22;1703;51.964;7.642;2024-03-08T06:08:17;3.90;99.90
3380;DHT22;1703;51.964;7.642;2024-03-08T06:10:44;3.90;99.90
3380;DHT22;1703;51.964;7.642;2024-03-08T06:13:11;3.90;99.90
3380;DHT22;1703;51.964;7.642;2024-03-08T06:15:38;3.90;99.90
3380;DHT22;1703;51.964;7.642;2024-03-08T06:18:05;3.90;99.90
3380;DHT22;1703;51.964;7.642;2024-03-08T06:20:33;3.90;99.90
3380;DHT22;1703;51.964;7.642;2024-03-08T06:23:01;3.90;99.90
3380;DHT22;1703;51.964;7.642;2024-03-08T06:25:28;3.90;99.90
3380;DHT22;1703;51.964;7.642;2024-03-08T06:27:55;4.00;99.90
3380;DHT22;1703;51.964;7.642;2024-03-08T06:30:21;3.90;99.90
3380;DHT22;1703;51.964;7.642;2024-03-08T06:32:48;4.00;99.90
3380;DHT22;1703;51.964;7.642;2024-03-08T06:35:15;4.00;99.90
3380;DHT22;1703;51.964;7.642;2024-03-08T06:37:42;4.00;99.90
3380;DHT22;1703;51.964;7.642;2024-03-08T06:40:12;4.00;99.90
3380;DHT22;1703;51.964;7.642;2024-03-08T06:42:40;4.00;99.90
3380;DHT22;1703;51.964;7.642;2024-03-08T06:45:07;4.00;99.90
3380;DHT22;1703;51.964;7.642;2024-03-08T06:47:35;3.90;99.90
3380;DHT22;1703;51.964;7.642;2024-03-08T06:50:03;3.90;99.90
3380;DHT22;1703;51.964;7.642;2024-03-08T06:52:31;3.90;99.90
3380;DHT22;1703;51.964;7.642;2024-03-08T06:54:58;3.90;99.90
3380;DHT22;1703;51.964;7.642;2024-03-08T06:57:28;4.00;99.90
3380;DHT22;1703;51.964;7.642;2024-03-08T06:59:55;4.00;99.90
3380;DHT22;1703;51.964;7.642;2024-03-08T07:02:22;4.00;99.90
3380;DHT22;1703;51.964;7.642;2024-03-08T07:04:51;4.10;99.90
3380;DHT22;1703;51.964;7.642;2024-03-08T07:07:18;4.10;99.90
3380;DHT22;1703;51.964;7.642;2024-03-08T07:09:46;4.20;99.90
3380;DHT22;1703;51.964;7.642;2024-03-08T07:12:15;4.20;99.90
3380;DHT22;1703;51.964;7.642;2024-03-08T07:14:43;4.20;99.90
3380;DHT22;1703;51.964;7.642;2024-03-08T07:17:11;4.20;99.90
3380;DHT22;1703;51.964;7.642;2024-03-08T07:19:38;4.20;99.90
3380;DHT22;1703;51.964;7.642;2024-03-08T07:22:05;4.20;99.90
3380;DHT22;1703;51.964;7.642;2024-03-08T07:24:34;4.30;99.90
3380;DHT22;1703;51.964;7.642;2024-03-08T07:27:05;4.30;99.90
3380;DHT22;1703;51.964;7.642;2024-03-08T07:29:32;4.40;99.90
3380;DHT22;1703;51.964;7.642;2024-03-08T07:32:00;4.40;99.90
3380;DHT22;1703;51.964;7.642;2024-03-08T07:34:38;4.40;99.90
3380;DHT22;1703;51.964;7.642;2024-03-08T07:37:06;4.40;99.90
3380;DHT22;1703;51.964;7.642;2024-03-08T07:39:37;4.50;99.90
3380;DHT22;1703;51.964;7.642;2024-03-08T07:42:04;4.40;99.90
3380;DHT22;1703;51.964;7.642;2024-03-08T07:44:34;4.40;99.90
3380;DHT22;1703;51.964;7.642;2024-03-08T07:47:02;4.50;99.90
3380;DHT22;1703;51.964;7.642;2024-03-08T07:49:29;4.50;99.90
3380;DHT22;1703;51.964;7.642;2024-03-08T07:51:56;4.50;99.90
3380;DHT22;1703;51.964;7.642;2024-03-08T07:54:23;4.50;99.90
3380;DHT22;1703;51.964;7.642;2024-03-08T07:56:51;4.60;99.90
3380;DHT22;1703;51.964;7.642;2024-03-08T07:59:18;4.60;99.90
3380;DHT22;1703;51.964;7.642;2024-03-08T08:01:46;4.60;99.90
3380;DHT22;1703;51.964;7.642;2024-03-08T08:04:14;4.70;99.90
3380;DHT22;1703;51.964;7.642;2024-03-08T08:06:43;4.70;99.90
3380;DHT22;1703;51.964;7.642;2024-03-08T08:09:10;4.80;99.90
3380;DHT22;1703;51.964;7.642;2024-03-08T08:11:40;4.80;99.90
3380;DHT22;1703;51.964;7.642;2024-03-08T08:14:08;4.80;99.90
3380;DHT22;1703;51.964;7.642;2024-03-08T08:16:36;4.80;99.90
3380;DHT22;1703;51.964;7.642;2024-03-08T08:19:03;4.90;99.90
3380;DHT22;1703;51.964;7.642;2024-03-08T08:21:34;4.90;99.90
3380;DHT22;1703;51.964;7.642;2024-03-08T08:24:02;5.00;99.90
3380;DHT22;1703;51.964;7.642;2024-03-08T08:26:29;5.00;99.90
3380;DHT22;1703;51.964;7.642;2024-03-08T08:28:56;5.10;99.90
3380;DHT22;1703;51.964;7.642;2024-03-08T08:31:22;5.10;99.90
3380;DHT22;1703;51.964;7.642;2024-03-08T08:33:49;5.10;99.90
3380;DHT22;1703;51.964;7.642;2024-03-08T08:36:19;5.20;99.90
3380;DHT22;1703;51.964;7.642;2024-03-08T08:38:47;5.40;99.90
3380;DHT22;1703;51.964;7.642;2024-03-08T08:41:14;5.40;99.90
3380;DHT22;1703;51.964;7.642;2024-03-08T08:43:42;5.50;99.90
3380;DHT22;1703;51.964;7.642;2024-03-08T08:46:10;5.50;99.90
3380;DHT22;1703;51.964;7.642;2024-03-08T08:48:38;5.50;99.90
3380;DHT22;1703;51.964;7.642;2024-03-08T08:51:06;5.50;99.90
3380;DHT22;1703;51.964;7.642;2024-03-08T08:53:37;5.60;99.90
3380;DHT22;1703;51.964;7.642;2024-03-08T08:56:07;5.70;99.90
3380;DHT22;1703;51.964;7.642;2024-03-08T08:58:34;5.90;99.90
3380;DHT22;1703;51.964;7.642;2024-03-08T09:01:01;6.10;99.90
3380;DHT22;1703;51.964;7.642;2024-03-08T09:03:28;6.20;99.90
3380;DHT22;1703;51.964;7.642;2024-03-08T09:05:55;6.30;99.90
3380;DHT22;1703;51.964;7.642;2024-03-08T09:08:22;6.30;99.90
3380;DHT22;1703;51.964;7.642;2024-03-08T09:10:50;6.30;99.90
3380;DHT22;1703;51.964;7.642;2024-03-08T09:13:18;6.40;99.90
3380;DHT22;1703;51.964;7.642;2024-03-08T09:15:45;6.30;99.90
3380;DHT22;1703;51.964;7.642;2024-03-08T09:18:12;6.40;99.90
3380;DHT22;1703;51.964;7.642;2024-03-08T09:20:38;6.40;99.90
3380;DHT22;1703;51.964;7.642;2024-03-08T09:23:06;6.30;99.90
3380;DHT22;1703;51.964;7.642;2024-03-08T09:25:34;6.40;99.90
3380;DHT22;1703;51.964;7.642;2024-03-08T09:28:00;6.50;99.90
3380;DHT22;1703;51.964;7.642;2024-03-08T09:30:29;6.60;99.90
3380;DHT22;1703;51.964;7.642;2024-03-08T09:32:55;6.70;99.90
3380;DHT22;1703;51.964;7.642;2024-03-08T09:35:22;6.60;99.90
3380;DHT22;1703;51.964;7.642;2024-03-08T09:37:49;6.70;99.90
3380;DHT22;1703;51.964;7.642;2024-03-08T09:40:17;6.80;99.90
3380;DHT22;1703;51.964;7.642;2024-03-08T09:42:45;6.90;99.90
3380;DHT22;1703;51.964;7.642;2024-03-08T09:45:13;7.00;99.90
3380;DHT22;1703;51.964;7.642;2024-03-08T09:47:43;7.00;99.90
3380;DHT22;1703;51.964;7.642;2024-03-08T09:50:11;7.10;99.90
3380;DHT22;1703;51.964;7.642;2024-03-08T09:52:39;7.20;99.90
3380;DHT22;1703;51.964;7.642;2024-03-08T09:55:07;7.20;99.90
3380;DHT22;1703;51.964;7.642;2024-03-08T09:57:36;7.30;99.90
3380;DHT22;1703;51.964;7.642;2024-03-08T10:00:04;7.40;99.90
3380;DHT22;1703;51.964;7.642;2024-03-08T10:02:46;7.40;99.90
3380;DHT22;1703;51.964;7.642;2024-03-08T10:05:14;7.50;99.90
3380;DHT22;1703;51.964;7.642;2024-03-08T10:07:40;7.60;99.90
3380;DHT22;1703;51.964;7.642;2024-03-08T10:10:08;7.60;99.90
3380;DHT22;1703;51.964;7.642;2024-03-08T10:12:37;7.70;99.90
3380;DHT22;1703;51.964;7.642;2024-03-08T10:15:06;7.70;99.90
3380;DHT22;1703;51.964;7.642;2024-03-08T10:17:34;7.80;99.90
3380;DHT22;1703;51.964;7.642;2024-03-08T10:20:03;7.90;99.90
3380;DHT22;1703;51.964;7.642;2024-03-08T10:22:40;7.90;99.90
3380;DHT22;1703;51.964;7.642;2024-03-08T10:25:09;8.00;99.90
3380;DHT22;1703;51.964;7.642;2024-03-08T10:27:38;8.10;99.90
3380;DHT22;1703;51.964;7.642;2024-03-08T10:30:08;8.10;99.90
3380;DHT22;1703;51.964;7.642;2024-03-08T10:32:38;8.10;99.90
3380;DHT22;1703;51.964;7.642;2024-03-08T10:35:07;8.20;99.90
3380;DHT22;1703;51.964;7.642;2024-03-08T10:37:40;8.20;99.90
3380;DHT22;1703;51.964;7.642;2024-03-08T10:40:15;8.30;99.90
3380;DHT22;1703;51.964;7.642;2024-03-08T10:42:51;8.20;99.90
3380;DHT22;1703;51.964;7.642;2024-03-08T10:45:26;8.20;99.90
3380;DHT22;1703;51.964;7.642;2024-03-08T10:48:08;8.20;99.90
3380;DHT22;1703;51.964;7.642;2024-03-08T10:50:38;8.30;99.90
3380;DHT22;1703;51.964;7.642;2024-03-08T10:53:06;8.20;99.90
3380;DHT22;1703;51.964;7.642;2024-03-08T10:55:33;8.30;99.90
3380;DHT22;1703;51.964;7.642;2024-03-08T10:58:00;8.40;99.90
3380;DHT22;1703;51.964;7.642;2024-03-08T11:00:27;8.50;99.90
3380;DHT22;1703;51.964;7.642;2024-03-08T11:02:55;8.50;99.90
3380;DHT22;1703;51.964;7.642;2024-03-08T11:05:32;8.50;99.90
3380;DHT22;1703;51.964;7.642;2024-03-08T11:08:08;8.60;99.90
3380;DHT22;1703;51.964;7.642;2024-03-08T11:10:47;8.60;99.90
3380;DHT22;1703;51.964;7.642;2024-03-08T11:13:34;8.50;99.90
3380;DHT22;1703;51.964;7.642;2024-03-08T11:16:02;8.60;99.90
3380;DHT22;1703;51.964;7.642;2024-03-08T11:18:32;8.70;99.90
3380;DHT22;1703;51.964;7.642;2024-03-08T11:21:02;8.80;99.90
3380;DHT22;1703;51.964;7.642;2024-03-08T11:23:33;8.90;99.90
3380;DHT22;1703;51.964;7.642;2024-03-08T11:26:01;9.00;99.90
3380;DHT22;1703;51.964;7.642;2024-03-08T11:28:31;9.10;99.90
3380;DHT22;1703;51.964;7.642;2024-03-08T11:31:22;9.20;99.90
3380;DHT22;1703;51.964;7.642;2024-03-08T11:33:50;9.10;99.90
3380;DHT22;1703;51.964;7.642;2024-03-08T11:36:21;9.20;99.90
3380;DHT22;1703;51.964;7.642;2024-03-08T11:38:50;9.30;99.90
3380;DHT22;1703;51.964;7.642;2024-03-08T11:41:18;9.30;99.90
3380;DHT22;1703;51.964;7.642;2024-03-08T11:43:46;9.30;99.90
3380;DHT22;1703;51.964;7.642;2024-03-08T11:46:14;9.30;99.90
3380;DHT22;1703;51.964;7.642;2024-03-08T11:48:42;9.30;99.90
3380;DHT22;1703;51.964;7.642;2024-03-08T11:51:09;9.40;99.90
3380;DHT22;1703;51.964;7.642;2024-03-08T11:53:38;9.50;99.90
3380;DHT22;1703;51.964;7.642;2024-03-08T11:56:08;9.50;99.90
3380;DHT22;1703;51.964;7.642;2024-03-08T11:58:35;9.50;99.90
3380;DHT22;1703;51.964;7.642;2024-03-08T12:01:03;9.40;99.90
3380;DHT22;1703;51.964;7.642;2024-03-08T12:03:31;9.40;99.90
3380;DHT22;1703;51.964;7.642;2024-03-08T12:05:59;9.50;99.90
3380;DHT22;1703;51.964;7.642;2024-03-08T12:08:27;9.50;99.90
3380;DHT22;1703;51.964;7.642;2024-03-08T12:10:55;9.50;99.90
3380;DHT22;1703;51.964;7.642;2024-03-08T12:13:26;9.60;99.90
3380;DHT22;1703;51.964;7.642;2024-03-08T12:15:56;9.70;99.90
3380;DHT22;1703;51.964;7.642;2024-03-08T12:18:24;9.60;99.90
3380;DHT22;1703;51.964;7.642;2024-03-08T12:20:51;9.70;99.90
3380;DHT22;1703;51.964;7.642;2024-03-08T12:23:18;9.80;99.90
3380;DHT22;1703;51.964;7.642;2024-03-08T12:25:45;9.70;99.90
3380;DHT22;1703;51.964;7.642;2024-03-08T12:28:13;9.70;99.90
3380;DHT22;1703;51.964;7.642;2024-03-08T12:30:47;9.80;99.90
3380;DHT22;1703;51.964;7.642;2024-03-08T12:33:15;9.80;99.90
3380;DHT22;1703;51.964;7.642;2024-03-08T12:35:50;9.90;99.90
3380;DHT22;1703;51.964;7.642;2024-03-08T12:38:19;9.90;99.90
3380;DHT22;1703;51.964;7.642;2024-03-08T12:40:50;10.00;99.90
3380;DHT22;1703;51.964;7.642;2024-03-08T12:43:18;10.00;99.90
3380;DHT22;1703;51.964;7.642;2024-03-08T12:45:47;10.10;99.90
3380;DHT22;1703;51.964;7.642;2024-03-08T12:48:14;10.10;99.90
3380;DHT22;1703;51.964;7.642;2024-03-08T12:50:40;10.30;99.90
3380;DHT22;1703;51.964;7.642;2024-03-08T12:53:09;10.30;99.90
3380;DHT22;1703;51.964;7.642;2024-03-08T12:55:36;10.20;99.90
3380;DHT22;1703;51.964;7.642;2024-03-08T12:58:04;10.20;99.90
3380;DHT22;1703;51.964;7.642;2024-03-08T13:00:33;10.20;99.90
3380;DHT22;1703;51.964;7.642;2024-03-08T13:03:03;10.30;99.90
3380;DHT22;1703;51.964;7.642;2024-03-08T13:05:32;10.30;99.90
3380;DHT22;1703;51.964;7.642;2024-03-08T13:07:58;10.40;99.90
3380;DHT22;1703;51.964;7.642;2024-03-08T13:10:25;10.30;99.90
3380;DHT22;1703;51.964;7.642;2024-03-08T13:12:52;10.30;99.90
3380;DHT22;1703;51.964;7.642;2024-03-08T13:15:20;10.40;99.90
3380;DHT22;1703;51.964;7.642;2024-03-08T13:17:47;10.30;99.90
3380;DHT22;1703;51.964;7.642;2024-03-08T13:20:15;10.30;99.90
3380;DHT22;1703;51.964;7.642;2024-03-08T13:22:44;10.40;99.90
3380;DHT22;1703;51.964;7.642;2024-03-08T13:25:11;10.40;99.90
3380;DHT22;1703;51.964;7.642;2024-03-08T13:27:39;10.50;99.90
3380;DHT22;1703;51.964;7.642;2024-03-08T13:30:07;10.50;99.90
3380;DHT22;1703;51.964;7.642;2024-03-08T13:32:38;10.50;99.90
3380;DHT22;1703;51.964;7.642;2024-03-08T13:35:06;10.50;99.90
3380;DHT22;1703;51.964;7.642;2024-03-08T13:37:39;10.60;99.90
3380;DHT22;1703;51.964;7.642;2024-03-08T13:40:07;10.70;99.90
3380;DHT22;1703;51.964;7.642;2024-03-08T13:42:36;10.70;99.90
3380;DHT22;1703;51.964;7.642;2024-03-08T13:45:05;10.70;99.90
3380;DHT22;1703;51.964;7.642;2024-03-08T13:47:32;10.80;99.90
3380;DHT22;1703;51.964;7.642;2024-03-08T13:49:59;10.80;99.90
3380;DHT22;1703;51.964;7.642;2024-03-08T13:52:26;10.90;99.90
3380;DHT22;1703;51.964;7.642;2024-03-08T13:54:56;10.80;99.90
3380;DHT22;1703;51.964;7.642;2024-03-08T13:57:23;10.80;99.90
3380;DHT22;1703;51.964;7.642;2024-03-08T13:59:49;10.90;99.90
3380;DHT22;1703;51.964;7.642;2024-03-08T14:02:17;11.00;99.90
3380;DHT22;1703;51.964;7.642;2024-03-08T14:04:43;11.00;99.90
3380;DHT22;1703;51.964;7.642;2024-03-08T14:07:10;11.40;99.90
3380;DHT22;1703;51.964;7.642;2024-03-08T14:09:37;11.80;99.90
3380;DHT22;1703;51.964;7.642;2024-03-08T14:12:09;12.60;99.90
3380;DHT22;1703;51.964;7.642;2024-03-08T14:14:36;13.40;99.90
3380;DHT22;1703;51.964;7.642;2024-03-08T14:17:04;13.90;99.90
3380;DHT22;1703;51.964;7.642;2024-03-08T14:19:32;14.30;99.90
3380;DHT22;1703;51.964;7.642;2024-03-08T14:22:00;14.70;99.90
3380;DHT22;1703;51.964;7.642;2024-03-08T14:24:29;14.90;99.90
3380;DHT22;1703;51.964;7.642;2024-03-08T14:26:56;15.20;99.90
3380;DHT22;1703;51.964;7.642;2024-03-08T14:29:25;15.60;99.90
3380;DHT22;1703;51.964;7.642;2024-03-08T14:31:54;15.80;99.90
3380;DHT22;1703;51.964;7.642;2024-03-08T14:34:23;15.50;99.90
3380;DHT22;1703;51.964;7.642;2024-03-08T14:36:53;15.40;99.90
3380;DHT22;1703;51.964;7.642;2024-03-08T14:39:20;15.30;99.90
3380;DHT22;1703;51.964;7.642;2024-03-08T14:41:51;15.30;99.90
3380;DHT22;1703;51.964;7.642;2024-03-08T14:44:19;15.10;99.90
3380;DHT22;1703;51.964;7.642;2024-03-08T14:46:47;14.80;99.90
3380;DHT22;1703;51.964;7.642;2024-03-08T14:49:15;14.60;99.90
3380;DHT22;1703;51.964;7.642;2024-03-08T14:51:41;14.40;99.90
3380;DHT22;1703;51.964;7.642;2024-03-08T14:54:09;14.20;99.90
3380;DHT22;1703;51.964;7.642;2024-03-08T14:56:36;13.90;99.90
3380;DHT22;1703;51.964;7.642;2024-03-08T14:59:03;13.50;99.90
3380;DHT22;1703;51.964;7.642;2024-03-08T15:01:30;13.30;99.90
3380;DHT22;1703;51.964;7.642;2024-03-08T15:03:59;13.50;99.90
3380;DHT22;1703;51.964;7.642;2024-03-08T15:06:34;13.60;99.90
3380;DHT22;1703;51.964;7.642;2024-03-08T15:09:02;13.70;99.90
3380;DHT22;1703;51.964;7.642;2024-03-08T15:11:36;13.50;99.90
3380;DHT22;1703;51.964;7.642;2024-03-08T15:14:04;13.40;99.90
3380;DHT22;1703;51.964;7.642;2024-03-08T15:16:35;13.30;99.90
3380;DHT22;1703;51.964;7.642;2024-03-08T15:19:03;13.40;99.90
3380;DHT22;1703;51.964;7.642;2024-03-08T15:21:31;13.40;99.90
3380;DHT22;1703;51.964;7.642;2024-03-08T15:23:59;13.20;99.90
3380;DHT22;1703;51.964;7.642;2024-03-08T15:26:28;13.30;99.90
3380;DHT22;1703;51.964;7.642;2024-03-08T15:28:55;13.40;99.90
3380;DHT22;1703;51.964;7.642;2024-03-08T15:31:22;13.30;99.90
3380;DHT22;1703;51.964;7.642;2024-03-08T15:33:50;13.10;99.90
3380;DHT22;1703;51.964;7.642;2024-03-08T15:36:27;12.90;99.90
3380;DHT22;1703;51.964;7.642;2024-03-08T15:38:56;12.70;99.90
3380;DHT22;1703;51.964;7.642;2024-03-08T15:41:23;12.60;99.90
3380;DHT22;1703;51.964;7.642;2024-03-08T15:43:52;12.60;99.90
3380;DHT22;1703;51.964;7.642;2024-03-08T15:46:20;12.60;99.90
3380;DHT22;1703;51.964;7.642;2024-03-08T15:48:48;12.60;99.90
3380;DHT22;1703;51.964;7.642;2024-03-08T15:51:17;12.80;99.90
3380;DHT22;1703;51.964;7.642;2024-03-08T15:53:46;12.50;99.90
3380;DHT22;1703;51.964;7.642;2024-03-08T15:56:18;12.30;99.90
3380;DHT22;1703;51.964;7.642;2024-03-08T15:58:46;12.00;99.90
3380;DHT22;1703;51.964;7.642;2024-03-08T16:01:13;11.80;99.90
3380;DHT22;1703;51.964;7.642;2024-03-08T16:03:41;11.40;99.90
3380;DHT22;1703;51.964;7.642;2024-03-08T16:06:08;11.30;99.90
3380;DHT22;1703;51.964;7.642;2024-03-08T16:08:35;11.10;99.90
3380;DHT22;1703;51.964;7.642;2024-03-08T16:11:06;11.00;99.90
3380;DHT22;1703;51.964;7.642;2024-03-08T16:13:34;10.90;99.90
3380;DHT22;1703;51.964;7.642;2024-03-08T16:16:04;10.90;99.90
3380;DHT22;1703;51.964;7.642;2024-03-08T16:18:31;10.90;99.90
3380;DHT22;1703;51.964;7.642;2024-03-08T16:21:00;10.70;99.90
3380;DHT22;1703;51.964;7.642;2024-03-08T16:23:28;10.60;99.90